Time;durP1;ratioP1;P1;durP2;ratioP2;P2;SDS_P1;SDS_P2;PMS_P1;PMS_P2;Temp;Humidity;BMP_temperature;BMP_pressure;BME280_temperature;BME280_humidity;BME280_pressure;Samples;Min_cycle;Max_cycle;Signal;HPM_P1;HPM_P2
2023/06/04 00:01:27;;;;;;;4.33;3.70;;;21.50;49.70;;;;;;5009809;28;20200;-74
2023/06/04 00:03:55;;;;;;;3.90;3.50;;;21.40;49.80;;;;;;5013461;28;20215;-73
2023/06/04 00:06:22;;;;;;;4.30;3.30;;;21.40;50.00;;;;;;5009974;28;20287;-75
2023/06/04 00:08:49;;;;;;;4.60;3.80;;;21.30;50.20;;;;;;5004588;28;20331;-74
2023/06/04 00:11:15;;;;;;;5.43;3.40;;;21.30;50.20;;;;;;5013063;28;20242;-75
2023/06/04 00:13:42;;;;;;;6.50;3.80;;;21.30;50.20;;;;;;5013142;28;20199;-74
2023/06/04 00:16:09;;;;;;;5.50;3.60;;;21.20;50.10;;;;;;5012678;28;20199;-74
2023/06/04 00:18:36;;;;;;;6.17;3.87;;;21.20;50.20;;;;;;5010641;28;20213;-74
2023/06/04 00:21:04;;;;;;;4.63;3.50;;;21.10;50.30;;;;;;5001589;28;20603;-75
2023/06/04 00:23:31;;;;;;;3.73;3.43;;;21.10;50.30;;;;;;4994685;28;20225;-75
2023/06/04 00:25:58;;;;;;;4.87;3.20;;;21.10;50.30;;;;;;5013355;28;20232;-75
2023/06/04 00:28:25;;;;;;;4.70;3.50;;;21.10;50.30;;;;;;5014840;28;20235;-75
2023/06/04 00:30:52;;;;;;;4.33;3.50;;;21.10;50.20;;;;;;5025169;28;20238;-75
2023/06/04 00:33:18;;;;;;;3.60;3.20;;;21.00;50.20;;;;;;5001944;28;20208;-74
2023/06/04 00:35:46;;;;;;;3.53;3.23;;;21.00;50.20;;;;;;5015488;28;20304;-74
2023/06/04 00:38:14;;;;;;;4.30;3.43;;;21.00;50.30;;;;;;5007973;28;20239;-74
2023/06/04 00:40:41;;;;;;;5.13;3.80;;;20.90;50.00;;;;;;5002014;28;20227;-74
2023/06/04 00:43:09;;;;;;;5.13;3.77;;;20.90;49.90;;;;;;5000970;28;20228;-75
2023/06/04 00:45:36;;;;;;;4.10;3.37;;;20.80;50.00;;;;;;4994339;28;20214;-75
2023/06/04 00:48:03;;;;;;;4.27;3.07;;;20.80;50.10;;;;;;4993512;28;20239;-74
2023/06/04 00:50:30;;;;;;;4.17;3.07;;;20.80;50.10;;;;;;4993148;28;20210;-75
2023/06/04 00:52:57;;;;;;;3.87;3.47;;;20.80;50.40;;;;;;5002934;28;20832;-75
2023/06/04 00:55:25;;;;;;;4.47;3.60;;;20.80;50.60;;;;;;5009861;28;20647;-75
2023/06/04 00:57:52;;;;;;;5.83;3.83;;;20.70;50.40;;;;;;5004345;28;20204;-75
2023/06/04 01:00:20;;;;;;;4.30;3.40;;;20.70;50.20;;;;;;5012455;28;20223;-75
2023/06/04 01:02:50;;;;;;;4.53;2.97;;;20.70;50.20;;;;;;5010499;28;20219;-75
2023/06/04 01:05:28;;;;;;;3.97;2.97;;;20.70;50.30;;;;;;5007412;28;20290;-75
2023/06/04 01:07:58;;;;;;;6.00;3.50;;;20.60;50.20;;;;;;5002648;28;20203;-75
2023/06/04 01:10:26;;;;;;;3.80;3.10;;;20.60;50.20;;;;;;5012169;28;20203;-74
2023/06/04 01:12:53;;;;;;;5.03;3.37;;;20.50;50.10;;;;;;5011304;28;20215;-75
2023/06/04 01:15:20;;;;;;;5.07;3.10;;;20.50;50.00;;;;;;5011624;28;20199;-76
2023/06/04 01:17:52;;;;;;;5.73;3.10;;;20.50;50.20;;;;;;5011625;28;20215;-75
2023/06/04 01:20:32;;;;;;;6.00;3.53;;;20.50;50.10;;;;;;5005660;28;20254;-74
2023/06/04 01:23:15;;;;;;;3.53;3.10;;;20.50;50.40;;;;;;5009870;28;20221;-74
2023/06/04 01:25:49;;;;;;;4.33;3.07;;;20.40;51.00;;;;;;5007378;28;20219;-75
2023/06/04 01:28:17;;;;;;;5.53;3.30;;;20.40;50.40;;;;;;5013003;28;20207;-75
2023/06/04 01:30:47;;;;;;;3.10;2.80;;;20.30;50.10;;;;;;5012566;28;20208;-75
2023/06/04 01:33:16;;;;;;;3.27;2.70;;;20.30;50.00;;;;;;5012848;28;20298;-74
2023/06/04 01:35:43;;;;;;;3.37;2.90;;;20.20;49.70;;;;;;4998535;28;20200;-74
2023/06/04 01:38:10;;;;;;;4.67;2.93;;;20.20;50.00;;;;;;5001248;28;20242;-74
2023/06/04 01:40:37;;;;;;;4.37;2.70;;;20.20;49.80;;;;;;5012478;28;20203;-74
2023/06/04 01:43:06;;;;;;;2.73;2.33;;;20.20;49.90;;;;;;5012420;28;20231;-74
2023/06/04 01:45:33;;;;;;;3.27;2.67;;;20.20;49.80;;;;;;5011645;28;20218;-74
2023/06/04 01:48:03;;;;;;;4.23;2.50;;;20.20;49.60;;;;;;5012319;28;20229;-73
2023/06/04 01:50:30;;;;;;;4.27;2.80;;;20.10;49.20;;;;;;5010127;28;20245;-74
2023/06/04 01:52:57;;;;;;;3.17;2.20;;;20.20;49.70;;;;;;5011828;28;20211;-74
2023/06/04 01:55:26;;;;;;;3.47;2.40;;;20.20;49.80;;;;;;5011318;28;20561;-74
2023/06/04 01:57:53;;;;;;;2.80;2.03;;;20.10;49.30;;;;;;5011253;28;20199;-74
2023/06/04 02:00:21;;;;;;;4.10;2.70;;;20.10;49.20;;;;;;5011215;28;20206;-74
2023/06/04 02:02:48;;;;;;;3.00;2.17;;;20.10;49.20;;;;;;5011327;28;20708;-75
2023/06/04 02:05:16;;;;;;;4.27;2.23;;;20.10;49.20;;;;;;5011305;28;20214;-74
2023/06/04 02:07:45;;;;;;;5.57;2.40;;;20.00;49.10;;;;;;5010450;28;20207;-75
2023/06/04 02:10:13;;;;;;;2.60;2.10;;;20.00;49.10;;;;;;5011473;28;20231;-75
2023/06/04 02:12:42;;;;;;;2.23;1.93;;;20.00;49.20;;;;;;5010831;28;20201;-75
2023/06/04 02:15:13;;;;;;;2.50;2.07;;;19.90;49.80;;;;;;5010263;28;20565;-74
2023/06/04 02:17:42;;;;;;;2.83;1.93;;;19.90;49.00;;;;;;5011139;28;20223;-75
2023/06/04 02:20:10;;;;;;;3.10;2.13;;;19.80;48.60;;;;;;5011237;28;20207;-74
2023/06/04 02:22:37;;;;;;;3.63;2.37;;;19.80;48.50;;;;;;5011147;28;20211;-75
2023/06/04 02:25:04;;;;;;;2.63;2.20;;;19.80;48.60;;;;;;5011366;28;20326;-74
2023/06/04 02:27:31;;;;;;;3.00;2.10;;;19.80;48.60;;;;;;5010992;28;20203;-75
2023/06/04 02:29:59;;;;;;;2.67;2.10;;;19.80;48.70;;;;;;5011031;28;20217;-74
2023/06/04 02:32:26;;;;;;;3.90;2.30;;;19.80;48.80;;;;;;5011385;28;20211;-75
2023/06/04 02:34:55;;;;;;;3.63;2.40;;;19.80;48.70;;;;;;5009541;28;20206;-74
2023/06/04 02:37:22;;;;;;;4.17;2.33;;;19.80;48.90;;;;;;5008289;28;20223;-75
2023/06/04 02:39:49;;;;;;;2.40;2.10;;;19.80;48.80;;;;;;4992535;28;20261;-74
2023/06/04 02:42:16;;;;;;;2.13;1.93;;;19.70;48.90;;;;;;5010644;28;20200;-74
2023/06/04 02:44:44;;;;;;;3.50;1.70;;;19.70;48.90;;;;;;5010725;28;20699;-74
2023/06/04 02:47:11;;;;;;;3.73;1.80;;;19.70;49.30;;;;;;5010434;28;20207;-74
2023/06/04 02:49:38;;;;;;;2.10;1.57;;;19.60;48.20;;;;;;4998531;28;20657;-74
2023/06/04 02:52:07;;;;;;;2.53;1.70;;;19.60;48.40;;;;;;4996944;28;20223;-73
2023/06/04 02:54:34;;;;;;;4.80;2.20;;;19.60;48.50;;;;;;5011304;28;20212;-76
2023/06/04 02:57:02;;;;;;;3.03;2.10;;;19.60;48.50;;;;;;5010250;28;20215;-75
2023/06/04 02:59:29;;;;;;;4.03;1.80;;;19.50;48.60;;;;;;5011172;28;20322;-74
2023/06/04 03:01:57;;;;;;;1.83;1.60;;;19.50;48.70;;;;;;5009290;28;20211;-75
2023/06/04 03:04:24;;;;;;;3.50;1.60;;;19.50;48.60;;;;;;4998476;28;20224;-74
2023/06/04 03:06:57;;;;;;;2.97;1.50;;;19.50;48.40;;;;;;4999531;28;20568;-74
2023/06/04 03:09:25;;;;;;;1.50;1.40;;;19.50;48.30;;;;;;5011001;28;20238;-74
2023/06/04 03:11:52;;;;;;;2.57;1.80;;;19.50;48.20;;;;;;5010590;28;20207;-74
2023/06/04 03:14:19;;;;;;;4.07;1.60;;;19.40;48.00;;;;;;5010233;28;20229;-75
2023/06/04 03:16:45;;;;;;;1.90;1.70;;;19.40;47.90;;;;;;5010522;28;20203;-75
2023/06/04 03:19:12;;;;;;;5.13;2.20;;;19.40;48.00;;;;;;5010678;28;20758;-75
2023/06/04 03:21:42;;;;;;;2.07;1.60;;;19.40;48.40;;;;;;5013326;28;20480;-74
2023/06/04 03:24:09;;;;;;;3.93;1.50;;;19.40;48.40;;;;;;5014415;28;20513;-75
2023/06/04 03:26:37;;;;;;;2.83;1.70;;;19.30;47.90;;;;;;5013820;28;20286;-75
2023/06/04 03:29:04;;;;;;;3.23;2.00;;;19.30;48.00;;;;;;5014682;28;20235;-74
2023/06/04 03:31:32;;;;;;;3.27;1.60;;;19.30;48.20;;;;;;5015327;28;20225;-74
2023/06/04 03:34:00;;;;;;;3.87;1.57;;;19.30;48.00;;;;;;5014332;28;20230;-74
2023/06/04 03:36:31;;;;;;;4.33;2.30;;;19.30;48.00;;;;;;4994837;28;20212;-74
2023/06/04 03:38:58;;;;;;;3.57;1.90;;;19.30;48.30;;;;;;4994019;28;20208;-74
2023/06/04 03:41:27;;;;;;;2.23;1.40;;;19.30;48.50;;;;;;4994668;28;20228;-75
2023/06/04 03:43:58;;;;;;;1.67;1.50;;;19.30;48.60;;;;;;4996500;28;20232;-74
2023/06/04 03:46:26;;;;;;;3.00;1.40;;;19.30;48.60;;;;;;5014382;28;21230;-75
2023/06/04 03:48:53;;;;;;;3.30;1.53;;;19.30;48.60;;;;;;5000902;28;20204;-74
2023/06/04 03:51:19;;;;;;;2.77;2.10;;;19.30;48.50;;;;;;4997807;28;20278;-74
2023/06/04 03:53:46;;;;;;;1.60;1.43;;;19.30;48.50;;;;;;5014398;28;20599;-75
2023/06/04 03:56:14;;;;;;;2.37;1.70;;;19.30;48.40;;;;;;5013974;28;20207;-74
2023/06/04 03:58:40;;;;;;;2.40;1.53;;;19.30;48.20;;;;;;5013322;28;20450;-74
2023/06/04 04:01:10;;;;;;;2.97;1.90;;;19.40;48.00;;;;;;5013740;28;20235;-74
2023/06/04 04:03:37;;;;;;;1.50;1.40;;;19.30;48.30;;;;;;5012903;28;20645;-74
2023/06/04 04:06:04;;;;;;;3.67;1.30;;;19.40;48.40;;;;;;5013296;28;20235;-74
2023/06/04 04:08:31;;;;;;;2.47;1.50;;;19.40;48.50;;;;;;5013304;28;20211;-74
2023/06/04 04:10:58;;;;;;;1.57;1.47;;;19.40;48.50;;;;;;5012994;28;20207;-74
2023/06/04 04:13:25;;;;;;;2.00;1.50;;;19.40;48.20;;;;;;5012941;28;20793;-74
2023/06/04 04:15:52;;;;;;;1.47;1.23;;;19.40;48.20;;;;;;5012999;28;20206;-74
2023/06/04 04:18:21;;;;;;;1.40;1.30;;;19.40;48.00;;;;;;5006281;28;20211;-74
2023/06/04 04:20:48;;;;;;;2.17;1.40;;;19.40;48.10;;;;;;5013404;28;20651;-74
2023/06/04 04:23:16;;;;;;;9.33;2.23;;;19.40;48.20;;;;;;5012818;28;20235;-74
2023/06/04 04:25:43;;;;;;;9.83;3.10;;;19.40;49.00;;;;;;5011170;28;20231;-74
2023/06/04 04:28:11;;;;;;;11.83;3.70;;;19.40;49.50;;;;;;5011604;28;20995;-76
2023/06/04 04:30:39;;;;;;;5.40;2.30;;;19.40;49.80;;;;;;5012926;28;20199;-75
2023/06/04 04:33:06;;;;;;;3.70;2.20;;;19.40;50.00;;;;;;5006780;28;20258;-75
2023/06/04 04:35:34;;;;;;;2.50;1.70;;;19.40;50.10;;;;;;5011411;28;20611;-75
2023/06/04 04:38:03;;;;;;;2.30;1.60;;;19.40;49.70;;;;;;5012940;28;20664;-74
2023/06/04 04:40:30;;;;;;;2.03;1.50;;;19.50;49.70;;;;;;5012536;28;20233;-74
2023/06/04 04:42:57;;;;;;;2.23;1.70;;;19.50;49.90;;;;;;5012974;28;20211;-74
2023/06/04 04:45:24;;;;;;;6.33;2.03;;;19.50;50.50;;;;;;5013219;28;20613;-74
2023/06/04 04:47:51;;;;;;;3.63;1.83;;;19.50;51.30;;;;;;5005418;28;20206;-75
2023/06/04 04:50:18;;;;;;;3.37;2.10;;;19.50;51.10;;;;;;5011437;28;20273;-74
2023/06/04 04:52:46;;;;;;;6.43;2.00;;;19.50;50.60;;;;;;5013929;28;20231;-74
2023/06/04 04:55:13;;;;;;;3.93;2.20;;;19.50;51.00;;;;;;4995326;28;20203;-75
2023/06/04 04:57:40;;;;;;;7.83;2.87;;;19.50;51.40;;;;;;5013367;28;20207;-75
2023/06/04 05:00:09;;;;;;;6.40;2.73;;;19.50;50.90;;;;;;5005303;28;20216;-75
2023/06/04 05:02:36;;;;;;;6.20;2.13;;;19.50;51.70;;;;;;4975704;28;20294;-75
2023/06/04 05:05:04;;;;;;;9.77;2.90;;;19.50;50.80;;;;;;4975823;28;20254;-75
2023/06/04 05:07:30;;;;;;;9.93;2.30;;;19.50;50.80;;;;;;4994427;28;20294;-75
2023/06/04 05:10:00;;;;;;;5.00;1.80;;;19.60;50.90;;;;;;5013665;28;20239;-74
2023/06/04 05:12:27;;;;;;;3.57;1.60;;;19.60;50.20;;;;;;5011948;28;20200;-74
2023/06/04 05:14:54;;;;;;;1.53;1.20;;;19.60;50.40;;;;;;5013220;28;20198;-76
2023/06/04 05:17:29;;;;;;;2.60;1.40;;;19.70;51.10;;;;;;5007585;28;20208;-76
2023/06/04 05:20:05;;;;;;;2.80;1.60;;;19.70;50.70;;;;;;5012652;28;20207;-76
2023/06/04 05:22:33;;;;;;;1.23;1.13;;;19.80;51.00;;;;;;5012810;28;20233;-75
2023/06/04 05:25:01;;;;;;;1.40;1.30;;;19.80;50.40;;;;;;5011303;28;20245;-74
2023/06/04 05:27:28;;;;;;;3.43;1.50;;;19.90;50.50;;;;;;4997472;28;20204;-75
2023/06/04 05:29:55;;;;;;;1.27;1.17;;;19.90;50.10;;;;;;4993035;28;20207;-75
2023/06/04 05:32:23;;;;;;;2.13;1.30;;;20.00;50.70;;;;;;5002696;28;20652;-75
2023/06/04 05:34:50;;;;;;;1.77;1.37;;;20.00;50.10;;;;;;4974347;28;20224;-76
2023/06/04 05:37:17;;;;;;;2.20;1.57;;;20.10;49.60;;;;;;5005100;28;20290;-75
2023/06/04 05:39:44;;;;;;;2.67;1.80;;;20.10;49.70;;;;;;5011737;28;20560;-75
2023/06/04 05:42:14;;;;;;;3.17;1.60;;;20.20;50.10;;;;;;5012389;28;20250;-76
2023/06/04 05:44:41;;;;;;;2.60;1.70;;;20.20;50.00;;;;;;5012486;28;20215;-75
2023/06/04 05:47:08;;;;;;;2.43;1.37;;;20.30;49.90;;;;;;5007873;28;20236;-75
2023/06/04 05:49:35;;;;;;;2.07;1.50;;;20.30;49.00;;;;;;5008769;28;20203;-75
2023/06/04 05:52:02;;;;;;;1.70;1.50;;;20.40;49.00;;;;;;5011737;28;20203;-75
2023/06/04 05:54:30;;;;;;;1.40;1.30;;;20.40;48.60;;;;;;5012469;28;20281;-75
2023/06/04 05:56:57;;;;;;;3.10;1.20;;;20.50;48.90;;;;;;5013043;28;20663;-77
2023/06/04 05:59:26;;;;;;;1.47;1.30;;;20.50;48.90;;;;;;5002141;28;20209;-75
2023/06/04 06:01:53;;;;;;;3.03;1.50;;;20.60;48.40;;;;;;5011789;28;20310;-75
2023/06/04 06:04:20;;;;;;;4.00;1.47;;;20.60;47.90;;;;;;5013369;28;20238;-74
2023/06/04 06:06:48;;;;;;;1.97;1.40;;;20.70;47.70;;;;;;5013000;28;20222;-75
2023/06/04 06:09:16;;;;;;;2.60;1.50;;;20.70;47.10;;;;;;4998701;28;20234;-75
2023/06/04 06:11:43;;;;;;;1.73;1.50;;;20.80;47.40;;;;;;4993819;28;20210;-74
2023/06/04 06:14:11;;;;;;;2.47;1.40;;;20.80;47.30;;;;;;4993483;28;20207;-74
2023/06/04 06:16:40;;;;;;;1.80;1.53;;;20.80;46.90;;;;;;4997069;28;20249;-75
2023/06/04 06:19:07;;;;;;;1.83;1.40;;;20.90;47.10;;;;;;5011990;28;20210;-74
2023/06/04 06:21:33;;;;;;;1.90;1.40;;;21.00;47.00;;;;;;5013357;28;20293;-78
2023/06/04 06:24:01;;;;;;;1.50;1.40;;;21.00;46.90;;;;;;4993460;28;20651;-76
2023/06/04 06:26:27;;;;;;;1.93;1.40;;;21.10;46.90;;;;;;5012737;28;20633;-75
2023/06/04 06:28:54;;;;;;;1.70;1.60;;;21.20;47.00;;;;;;5013236;28;20607;-75
2023/06/04 06:31:21;;;;;;;4.80;1.80;;;21.20;46.70;;;;;;5012561;28;20295;-73
2023/06/04 06:33:50;;;;;;;2.43;1.90;;;21.20;46.40;;;;;;5004845;28;20379;-75
2023/06/04 06:36:18;;;;;;;2.83;1.50;;;21.30;46.50;;;;;;5011367;28;20301;-75
2023/06/04 06:38:45;;;;;;;4.17;1.40;;;21.40;46.70;;;;;;5012441;28;20234;-74
2023/06/04 06:41:12;;;;;;;4.93;1.30;;;21.50;46.90;;;;;;5012549;28;20203;-74
2023/06/04 06:43:39;;;;;;;2.30;1.40;;;21.50;46.10;;;;;;4997846;28;20661;-75
2023/06/04 06:46:07;;;;;;;1.53;1.30;;;21.50;45.90;;;;;;4999248;28;20587;-75
2023/06/04 06:48:34;;;;;;;1.67;1.47;;;21.60;45.50;;;;;;5011664;28;20203;-75
2023/06/04 06:51:02;;;;;;;1.83;1.57;;;21.70;45.60;;;;;;5012363;28;20231;-76
2023/06/04 06:53:29;;;;;;;2.27;1.90;;;21.80;46.10;;;;;;5012088;28;20295;-76
2023/06/04 06:55:56;;;;;;;1.87;1.57;;;21.80;45.80;;;;;;4997734;28;20263;-74
2023/06/04 06:58:24;;;;;;;2.43;2.03;;;21.90;45.70;;;;;;5016214;28;20325;-76
2023/06/04 07:00:51;;;;;;;3.17;1.50;;;22.00;45.60;;;;;;5016391;28;20263;-77
2023/06/04 07:03:17;;;;;;;2.60;1.60;;;22.00;45.50;;;;;;5016110;28;20242;-76
2023/06/04 07:05:44;;;;;;;1.50;1.40;;;22.10;45.40;;;;;;5016341;28;20749;-75
2023/06/04 07:08:12;;;;;;;1.67;1.17;;;22.20;45.30;;;;;;5016193;28;20583;-75
2023/06/04 07:10:39;;;;;;;1.63;1.53;;;22.30;45.70;;;;;;5016511;28;20597;-75
2023/06/04 07:13:06;;;;;;;3.63;1.50;;;22.40;45.80;;;;;;5016470;28;20233;-75
2023/06/04 07:15:33;;;;;;;4.13;1.70;;;22.40;45.50;;;;;;5016214;28;20213;-75
2023/06/04 07:18:00;;;;;;;1.73;1.60;;;22.50;45.10;;;;;;5010552;28;20203;-74
2023/06/04 07:20:27;;;;;;;2.17;1.80;;;22.60;45.30;;;;;;5016377;28;20297;-74
2023/06/04 07:22:54;;;;;;;4.70;1.70;;;22.60;45.40;;;;;;5015787;28;20294;-74
2023/06/04 07:25:23;;;;;;;3.17;1.93;;;22.70;45.60;;;;;;5014948;28;20322;-75
2023/06/04 07:27:51;;;;;;;1.63;1.53;;;22.80;44.60;;;;;;5011914;28;20207;-75
2023/06/04 07:30:18;;;;;;;3.00;1.60;;;22.90;44.30;;;;;;5015675;28;20207;-74
2023/06/04 07:32:49;;;;;;;1.70;1.47;;;22.90;44.30;;;;;;5014980;28;20199;-75
2023/06/04 07:35:17;;;;;;;2.40;1.60;;;23.00;44.40;;;;;;5004039;28;20310;-74
2023/06/04 07:37:45;;;;;;;2.30;1.57;;;23.00;44.80;;;;;;5010942;28;20290;-74
2023/06/04 07:40:12;;;;;;;1.67;1.47;;;23.10;44.40;;;;;;5014837;28;20299;-74
2023/06/04 07:42:41;;;;;;;2.33;1.90;;;23.20;44.20;;;;;;5014752;28;20239;-74
2023/06/04 07:45:09;;;;;;;1.67;1.53;;;23.30;44.60;;;;;;4999241;28;20227;-75
2023/06/04 07:47:36;;;;;;;3.00;1.93;;;23.40;44.40;;;;;;5006655;28;20270;-76
2023/06/04 07:50:04;;;;;;;2.57;1.67;;;23.50;44.00;;;;;;5012416;28;20210;-74
2023/06/04 07:52:31;;;;;;;2.73;1.80;;;23.60;44.40;;;;;;4995541;28;20204;-75
2023/06/04 07:54:58;;;;;;;3.20;1.63;;;23.70;44.40;;;;;;5006297;28;20223;-75
2023/06/04 07:57:25;;;;;;;3.17;1.80;;;23.80;44.80;;;;;;5014434;28;20690;-73
2023/06/04 07:59:53;;;;;;;2.40;1.63;;;23.80;44.20;;;;;;5013729;28;20209;-74
2023/06/04 08:02:20;;;;;;;3.57;1.67;;;23.90;43.60;;;;;;5013991;28;20755;-74
2023/06/04 08:04:47;;;;;;;2.20;1.67;;;23.90;44.30;;;;;;5003328;28;20230;-74
2023/06/04 08:07:14;;;;;;;1.97;1.77;;;24.10;43.80;;;;;;5008634;28;20230;-75
2023/06/04 08:09:41;;;;;;;3.60;1.90;;;24.10;44.30;;;;;;5013950;28;20211;-73
2023/06/04 08:12:08;;;;;;;2.70;1.63;;;24.20;43.60;;;;;;5013487;28;20225;-73
2023/06/04 08:14:36;;;;;;;3.00;1.97;;;24.20;43.90;;;;;;5010858;28;20648;-72
2023/06/04 08:17:05;;;;;;;2.57;1.90;;;24.30;44.00;;;;;;4996789;28;20702;-72
2023/06/04 08:19:31;;;;;;;4.00;1.73;;;24.40;43.40;;;;;;5007760;28;20205;-72
2023/06/04 08:21:58;;;;;;;3.97;1.70;;;24.50;43.50;;;;;;4995923;28;20210;-72
2023/06/04 08:24:25;;;;;;;2.60;1.90;;;24.60;43.30;;;;;;4994765;28;20570;-72
2023/06/04 08:26:52;;;;;;;2.13;1.70;;;24.70;43.30;;;;;;4997495;28;20621;-74
2023/06/04 08:29:20;;;;;;;2.47;1.70;;;24.70;43.40;;;;;;5002444;28;20212;-74
2023/06/04 08:31:47;;;;;;;3.00;1.70;;;24.80;43.40;;;;;;4994489;28;20254;-73
2023/06/04 08:34:15;;;;;;;3.40;1.87;;;24.90;43.40;;;;;;4995966;28;20212;-74
2023/06/04 08:36:42;;;;;;;2.50;1.80;;;25.00;43.40;;;;;;5013521;28;20226;-74
2023/06/04 08:39:09;;;;;;;1.60;1.50;;;25.10;43.20;;;;;;5004357;28;20750;-73
2023/06/04 08:41:43;;;;;;;2.00;1.80;;;25.20;43.40;;;;;;4995219;28;20212;-73
2023/06/04 08:44:11;;;;;;;2.90;1.80;;;25.30;43.60;;;;;;5013746;28;20640;-72
2023/06/04 08:46:40;;;;;;;2.17;1.97;;;25.30;43.60;;;;;;5010967;28;20633;-74
2023/06/04 08:49:08;;;;;;;2.20;1.87;;;25.40;44.30;;;;;;5012984;28;20590;-73
2023/06/04 08:51:38;;;;;;;4.57;2.13;;;25.50;43.00;;;;;;5013552;28;20659;-73
2023/06/04 08:54:07;;;;;;;3.63;1.87;;;25.60;43.40;;;;;;5013328;28;20242;-72
2023/06/04 08:56:34;;;;;;;3.00;2.00;;;25.60;43.80;;;;;;5010716;28;20210;-73
2023/06/04 08:59:04;;;;;;;5.07;1.70;;;25.70;43.80;;;;;;5006098;28;20204;-72
2023/06/04 09:01:32;;;;;;;2.83;2.10;;;25.80;43.80;;;;;;5008823;28;20333;-73
2023/06/04 09:04:02;;;;;;;2.67;2.00;;;25.90;43.10;;;;;;5013021;28;20290;-72
2023/06/04 09:06:30;;;;;;;4.27;2.17;;;26.00;43.40;;;;;;5013884;28;20329;-76
2023/06/04 09:09:00;;;;;;;6.63;2.13;;;26.00;42.60;;;;;;5012899;28;20671;-75
2023/06/04 09:11:31;;;;;;;3.60;2.10;;;26.10;42.10;;;;;;5008944;28;20200;-75
2023/06/04 09:14:02;;;;;;;2.47;1.90;;;26.20;42.40;;;;;;5006090;28;20207;-73
2023/06/04 09:16:36;;;;;;;2.13;1.93;;;26.30;42.70;;;;;;4992626;28;20276;-75
2023/06/04 09:19:04;;;;;;;2.60;1.83;;;26.30;42.10;;;;;;5010035;28;20571;-74
2023/06/04 09:21:32;;;;;;;2.07;1.87;;;26.40;42.80;;;;;;5013288;28;20268;-74
2023/06/04 09:24:00;;;;;;;3.83;2.10;;;26.50;42.80;;;;;;4995902;28;20208;-75
2023/06/04 09:26:28;;;;;;;3.50;2.27;;;26.60;43.30;;;;;;4995326;28;20233;-75
2023/06/04 09:28:57;;;;;;;4.77;2.33;;;26.70;43.50;;;;;;4999950;28;20231;-73
2023/06/04 09:31:26;;;;;;;4.30;1.97;;;26.80;42.60;;;;;;5018128;28;20204;-75
2023/06/04 09:33:53;;;;;;;3.57;1.93;;;26.90;42.80;;;;;;5017586;28;20203;-73
2023/06/04 09:36:21;;;;;;;2.10;1.80;;;26.90;42.70;;;;;;4998626;28;20262;-75
2023/06/04 09:38:48;;;;;;;2.20;2.00;;;27.00;41.70;;;;;;4997800;28;20213;-75
2023/06/04 09:41:21;;;;;;;4.17;2.37;;;27.10;41.20;;;;;;5015629;28;20199;-75
2023/06/04 09:43:50;;;;;;;3.43;1.93;;;27.20;41.40;;;;;;5012907;28;20211;-74
2023/06/04 09:46:18;;;;;;;3.37;2.13;;;27.30;41.10;;;;;;5009083;28;20271;-74
2023/06/04 09:48:47;;;;;;;2.23;2.00;;;27.40;40.10;;;;;;5012336;28;20223;-77
2023/06/04 09:51:19;;;;;;;3.57;2.40;;;27.50;40.20;;;;;;5000211;28;20200;-76
2023/06/04 09:53:54;;;;;;;4.20;2.30;;;27.60;40.40;;;;;;5012117;28;20205;-74
2023/06/04 09:56:23;;;;;;;3.33;2.30;;;27.70;38.70;;;;;;5011914;28;20252;-76
2023/06/04 09:58:50;;;;;;;3.47;2.30;;;27.80;38.80;;;;;;5005119;28;20202;-74
2023/06/04 10:01:19;;;;;;;3.30;2.00;;;27.90;39.50;;;;;;4993351;28;20220;-76
2023/06/04 10:03:48;;;;;;;2.30;2.00;;;28.00;38.70;;;;;;5007286;28;20206;-75
2023/06/04 10:06:16;;;;;;;3.50;2.40;;;28.00;38.20;;;;;;5007588;28;20221;-75
2023/06/04 10:08:43;;;;;;;3.17;1.93;;;28.20;38.30;;;;;;5012130;28;20661;-78
2023/06/04 10:11:13;;;;;;;3.90;1.90;;;28.30;37.60;;;;;;5012606;28;20214;-74
2023/06/04 10:13:50;;;;;;;2.90;2.17;;;28.40;37.10;;;;;;5013073;28;20298;-76
2023/06/04 10:16:17;;;;;;;2.00;1.80;;;28.40;35.90;;;;;;5007593;28;20205;-75
2023/06/04 10:18:45;;;;;;;5.03;2.47;;;28.50;36.60;;;;;;5011391;28;20201;-78
2023/06/04 10:21:14;;;;;;;2.10;1.80;;;28.60;36.80;;;;;;5012448;28;20203;-76
2023/06/04 10:23:44;;;;;;;2.30;1.80;;;28.80;35.90;;;;;;5011848;28;20225;-77
2023/06/04 10:26:15;;;;;;;3.33;2.20;;;28.80;35.20;;;;;;5013486;28;20581;-81
2023/06/04 10:28:44;;;;;;;2.40;2.00;;;28.80;34.60;;;;;;5006850;28;20701;-78
2023/06/04 10:31:11;;;;;;;2.87;2.00;;;28.90;34.40;;;;;;4997248;28;20222;-76
2023/06/04 10:33:39;;;;;;;5.20;2.20;;;29.00;34.50;;;;;;4997728;28;20297;-75
2023/06/04 10:36:18;;;;;;;4.57;2.10;;;29.00;35.00;;;;;;4997432;28;20563;-76
2023/06/04 10:38:48;;;;;;;3.17;1.97;;;29.10;34.70;;;;;;5003347;28;20205;-76
2023/06/04 10:41:16;;;;;;;3.17;2.07;;;29.30;35.10;;;;;;5015956;28;20205;-76
2023/06/04 10:43:45;;;;;;;2.80;2.10;;;29.40;35.00;;;;;;5016485;28;20212;-74
2023/06/04 10:46:13;;;;;;;2.53;2.10;;;29.50;33.80;;;;;;5012318;28;20226;-74
2023/06/04 10:48:47;;;;;;;4.60;2.60;;;29.50;33.80;;;;;;5010576;28;20206;-74
2023/06/04 10:51:14;;;;;;;2.83;1.90;;;29.60;34.10;;;;;;4996575;28;20207;-76
2023/06/04 10:53:41;;;;;;;3.80;2.00;;;29.60;33.40;;;;;;4996464;28;20209;-75
2023/06/04 10:56:08;;;;;;;2.00;1.77;;;29.70;33.40;;;;;;5001224;28;20206;-74
2023/06/04 10:58:35;;;;;;;2.90;2.07;;;29.80;33.90;;;;;;4996120;28;20214;-75
2023/06/04 11:01:04;;;;;;;4.67;1.90;;;29.90;34.10;;;;;;4995662;28;20215;-76
2023/06/04 11:03:37;;;;;;;2.87;1.90;;;29.90;33.50;;;;;;4996364;28;20306;-75
2023/06/04 11:06:17;;;;;;;3.20;2.10;;;30.00;33.20;;;;;;4996154;28;20247;-74
2023/06/04 11:08:44;;;;;;;2.33;1.93;;;30.00;32.20;;;;;;4997103;28;20596;-74
2023/06/04 11:11:15;;;;;;;2.40;1.97;;;30.10;32.60;;;;;;5012543;28;20261;-76
2023/06/04 11:13:42;;;;;;;2.40;2.13;;;30.10;32.90;;;;;;5006120;28;20222;-75
2023/06/04 11:16:21;;;;;;;3.07;2.13;;;30.30;33.50;;;;;;5015686;28;20293;-76
2023/06/04 11:18:56;;;;;;;2.53;2.33;;;30.30;33.20;;;;;;5015524;28;20212;-75
2023/06/04 11:21:24;;;;;;;2.57;1.90;;;30.30;32.00;;;;;;5015185;28;20237;-78
2023/06/04 11:23:56;;;;;;;3.00;2.27;;;30.50;32.20;;;;;;5015190;28;20202;-75
2023/06/04 11:26:25;;;;;;;4.23;2.10;;;30.50;32.00;;;;;;5018629;28;20257;-75
2023/06/04 11:28:53;;;;;;;2.50;2.30;;;30.60;32.10;;;;;;5007225;28;20227;-74
2023/06/04 11:31:21;;;;;;;2.17;1.97;;;30.70;31.50;;;;;;5015195;28;20301;-76
2023/06/04 11:33:49;;;;;;;3.53;2.40;;;30.70;31.60;;;;;;5015269;28;20211;-75
2023/06/04 11:36:26;;;;;;;3.60;2.20;;;30.70;31.40;;;;;;5015178;28;20222;-74
2023/06/04 11:38:57;;;;;;;2.60;2.33;;;30.80;31.50;;;;;;5008865;28;20237;-73
2023/06/04 11:41:25;;;;;;;2.60;2.40;;;30.90;30.50;;;;;;5012769;28;20257;-74
2023/06/04 11:43:52;;;;;;;2.50;2.30;;;30.90;31.10;;;;;;5001649;28;20210;-75
2023/06/04 11:46:21;;;;;;;4.07;2.20;;;31.00;31.40;;;;;;5013042;28;20223;-72
2023/06/04 11:48:48;;;;;;;4.80;2.40;;;31.10;30.10;;;;;;5009141;28;20230;-74
2023/06/04 11:51:16;;;;;;;3.40;2.40;;;31.10;30.40;;;;;;5014407;28;20226;-74
2023/06/04 11:53:43;;;;;;;3.23;2.33;;;31.10;30.30;;;;;;5013683;28;20210;-75
2023/06/04 11:56:11;;;;;;;2.50;2.30;;;31.20;30.70;;;;;;5013632;28;20233;-71
2023/06/04 11:58:40;;;;;;;2.90;2.20;;;31.20;30.10;;;;;;5012753;28;20305;-75
2023/06/04 12:01:08;;;;;;;3.30;2.30;;;31.20;30.00;;;;;;5013602;28;20211;-75
2023/06/04 12:03:37;;;;;;;2.63;2.43;;;31.20;30.50;;;;;;5003571;28;20208;-75
2023/06/04 12:06:15;;;;;;;4.50;2.30;;;31.20;30.00;;;;;;4998913;28;20645;-74
2023/06/04 12:08:50;;;;;;;4.00;2.60;;;31.20;29.90;;;;;;5009337;28;20242;-75
2023/06/04 12:11:29;;;;;;;4.67;2.40;;;31.20;30.00;;;;;;4994791;28;20213;-74
2023/06/04 12:13:57;;;;;;;2.70;2.50;;;31.30;29.80;;;;;;4997937;28;20222;-75
2023/06/04 12:16:24;;;;;;;3.10;2.50;;;31.30;29.60;;;;;;5014313;28;20297;-75
2023/06/04 12:19:04;;;;;;;2.60;2.20;;;31.40;30.00;;;;;;5013859;28;20632;-74
2023/06/04 12:21:31;;;;;;;5.30;2.30;;;31.40;30.30;;;;;;5014173;28;20606;-74
2023/06/04 12:24:07;;;;;;;3.43;2.43;;;31.60;29.90;;;;;;5013723;28;20217;-73
2023/06/04 12:26:37;;;;;;;2.93;2.20;;;31.50;29.30;;;;;;5010300;28;20261;-76
2023/06/04 12:29:10;;;;;;;3.93;2.40;;;31.60;30.00;;;;;;5013574;28;20203;-74
2023/06/04 12:31:37;;;;;;;2.60;2.40;;;31.60;30.10;;;;;;5013326;28;20549;-73
2023/06/04 12:34:05;;;;;;;4.70;2.60;;;31.60;30.00;;;;;;5003038;28;20227;-74
2023/06/04 12:36:33;;;;;;;3.10;2.60;;;31.70;30.00;;;;;;5010761;28;20195;-76
2023/06/04 12:39:01;;;;;;;3.93;2.60;;;31.70;30.10;;;;;;5013661;28;20314;-75
2023/06/04 12:41:29;;;;;;;5.07;2.43;;;31.80;30.00;;;;;;5010540;28;20283;-77
2023/06/04 12:43:56;;;;;;;2.80;2.60;;;31.70;30.50;;;;;;4998438;28;20640;-74
2023/06/04 12:46:24;;;;;;;3.63;2.50;;;31.70;30.70;;;;;;4993651;28;20326;-74
2023/06/04 12:48:52;;;;;;;2.63;2.00;;;31.80;31.00;;;;;;5027316;28;20317;-76
2023/06/04 12:51:21;;;;;;;5.10;2.50;;;31.80;31.50;;;;;;5011711;28;20657;-74
2023/06/04 12:53:48;;;;;;;2.43;2.17;;;31.90;30.70;;;;;;5012363;28;20229;-75